sensor_id;sensor_type;location;lat;lon;timestamp;P1;durP1;ratioP1;P2;durP2;ratioP2
22557;SDS011;11445;53.816;8.902;2023-10-19T00:00:46;9.95;;;7.28;;
22557;SDS011;11445;53.816;8.902;2023-10-19T00:03:15;19.20;;;8.27;;
22557;SDS011;11445;53.816;8.902;2023-10-19T00:05:41;14.50;;;8.57;;
22557;SDS011;11445;53.816;8.902;2023-10-19T00:08:11;15.02;;;8.57;;
22557;SDS011;11445;53.816;8.902;2023-10-19T00:10:43;13.85;;;8.50;;
22557;SDS011;11445;53.816;8.902;2023-10-19T00:13:13;14.55;;;8.35;;
22557;SDS011;11445;53.816;8.902;2023-10-19T00:15:40;10.23;;;8.02;;
22557;SDS011;11445;53.816;8.902;2023-10-19T00:18:13;12.32;;;7.82;;
22557;SDS011;11445;53.816;8.902;2023-10-19T00:20:47;16.00;;;8.75;;
22557;SDS011;11445;53.816;8.902;2023-10-19T00:23:18;11.65;;;8.10;;
22557;SDS011;11445;53.816;8.902;2023-10-19T00:25:49;15.18;;;8.82;;
22557;SDS011;11445;53.816;8.902;2023-10-19T00:28:17;10.30;;;7.57;;
22557;SDS011;11445;53.816;8.902;2023-10-19T00:30:43;11.32;;;8.60;;
22557;SDS011;11445;53.816;8.902;2023-10-19T00:33:11;13.18;;;8.32;;
22557;SDS011;11445;53.816;8.902;2023-10-19T00:35:42;16.58;;;8.45;;
22557;SDS011;11445;53.816;8.902;2023-10-19T00:38:23;12.20;;;8.80;;
22557;SDS011;11445;53.816;8.902;2023-10-19T00:41:12;15.88;;;7.63;;
22557;SDS011;11445;53.816;8.902;2023-10-19T00:43:44;14.80;;;8.68;;
22557;SDS011;11445;53.816;8.902;2023-10-19T00:46:11;15.85;;;8.50;;
22557;SDS011;11445;53.816;8.902;2023-10-19T00:48:47;13.93;;;8.32;;
22557;SDS011;11445;53.816;8.902;2023-10-19T00:51:16;11.60;;;8.05;;
22557;SDS011;11445;53.816;8.902;2023-10-19T00:53:55;17.05;;;9.18;;
22557;SDS011;11445;53.816;8.902;2023-10-19T00:56:24;16.55;;;8.95;;
22557;SDS011;11445;53.816;8.902;2023-10-19T00:58:56;12.47;;;8.93;;
22557;SDS011;11445;53.816;8.902;2023-10-19T01:01:32;13.98;;;9.23;;
22557;SDS011;11445;53.816;8.902;2023-10-19T01:04:05;13.00;;;8.27;;
22557;SDS011;11445;53.816;8.902;2023-10-19T01:06:32;16.00;;;8.50;;
22557;SDS011;11445;53.816;8.902;2023-10-19T01:09:00;14.98;;;8.57;;
22557;SDS011;11445;53.816;8.902;2023-10-19T01:11:28;14.98;;;9.07;;
22557;SDS011;11445;53.816;8.902;2023-10-19T01:13:55;13.52;;;9.02;;
22557;SDS011;11445;53.816;8.902;2023-10-19T01:16:24;13.20;;;8.70;;
22557;SDS011;11445;53.816;8.902;2023-10-19T01:18:52;14.82;;;8.90;;
22557;SDS011;11445;53.816;8.902;2023-10-19T01:21:22;14.52;;;9.77;;
22557;SDS011;11445;53.816;8.902;2023-10-19T01:24:02;12.77;;;8.88;;
22557;SDS011;11445;53.816;8.902;2023-10-19T01:26:32;12.68;;;9.40;;
22557;SDS011;11445;53.816;8.902;2023-10-19T01:29:02;12.65;;;9.45;;
22557;SDS011;11445;53.816;8.902;2023-10-19T01:31:38;12.77;;;8.55;;
22557;SDS011;11445;53.816;8.902;2023-10-19T01:34:17;17.38;;;9.68;;
22557;SDS011;11445;53.816;8.902;2023-10-19T01:36:45;18.00;;;9.70;;
22557;SDS011;11445;53.816;8.902;2023-10-19T01:39:16;18.65;;;10.63;;
22557;SDS011;11445;53.816;8.902;2023-10-19T01:41:44;16.95;;;9.90;;
22557;SDS011;11445;53.816;8.902;2023-10-19T01:44:11;22.30;;;10.45;;
22557;SDS011;11445;53.816;8.902;2023-10-19T01:46:40;17.88;;;9.95;;
22557;SDS011;11445;53.816;8.902;2023-10-19T01:49:08;19.20;;;10.32;;
22557;SDS011;11445;53.816;8.902;2023-10-19T01:51:36;16.95;;;9.65;;
22557;SDS011;11445;53.816;8.902;2023-10-19T01:54:03;15.57;;;9.52;;
22557;SDS011;11445;53.816;8.902;2023-10-19T01:56:33;15.80;;;10.50;;
22557;SDS011;11445;53.816;8.902;2023-10-19T01:59:00;18.42;;;10.30;;
22557;SDS011;11445;53.816;8.902;2023-10-19T02:01:29;16.30;;;10.30;;
22557;SDS011;11445;53.816;8.902;2023-10-19T02:03:58;19.92;;;11.07;;
22557;SDS011;11445;53.816;8.902;2023-10-19T02:06:26;17.88;;;11.07;;
22557;SDS011;11445;53.816;8.902;2023-10-19T02:08:55;17.48;;;11.45;;
22557;SDS011;11445;53.816;8.902;2023-10-19T02:11:26;17.65;;;10.82;;
22557;SDS011;11445;53.816;8.902;2023-10-19T02:13:55;16.27;;;10.23;;
22557;SDS011;11445;53.816;8.902;2023-10-19T02:16:25;17.10;;;10.73;;
22557;SDS011;11445;53.816;8.902;2023-10-19T02:18:54;15.95;;;10.85;;
22557;SDS011;11445;53.816;8.902;2023-10-19T02:21:20;16.05;;;10.68;;
22557;SDS011;11445;53.816;8.902;2023-10-19T02:23:48;17.48;;;10.05;;
22557;SDS011;11445;53.816;8.902;2023-10-19T02:26:15;15.77;;;10.57;;
22557;SDS011;11445;53.816;8.902;2023-10-19T02:28:45;19.13;;;10.25;;
22557;SDS011;11445;53.816;8.902;2023-10-19T02:31:12;16.45;;;10.52;;
22557;SDS011;11445;53.816;8.902;2023-10-19T02:33:43;15.25;;;10.70;;
22557;SDS011;11445;53.816;8.902;2023-10-19T02:36:11;17.00;;;10.43;;
22557;SDS011;11445;53.816;8.902;2023-10-19T02:38:39;17.48;;;10.75;;
22557;SDS011;11445;53.816;8.902;2023-10-19T02:41:08;17.38;;;10.07;;
22557;SDS011;11445;53.816;8.902;2023-10-19T02:43:36;18.77;;;10.43;;
22557;SDS011;11445;53.816;8.902;2023-10-19T02:46:02;16.48;;;10.90;;
22557;SDS011;11445;53.816;8.902;2023-10-19T02:48:31;21.40;;;10.95;;
22557;SDS011;11445;53.816;8.902;2023-10-19T02:50:57;16.92;;;10.70;;
22557;SDS011;11445;53.816;8.902;2023-10-19T02:53:31;16.60;;;10.13;;
22557;SDS011;11445;53.816;8.902;2023-10-19T02:55:59;16.90;;;10.43;;
22557;SDS011;11445;53.816;8.902;2023-10-19T02:58:35;17.35;;;11.25;;
22557;SDS011;11445;53.816;8.902;2023-10-19T03:01:08;18.85;;;11.27;;
22557;SDS011;11445;53.816;8.902;2023-10-19T03:03:39;16.75;;;10.95;;
22557;SDS011;11445;53.816;8.902;2023-10-19T03:06:08;18.15;;;10.75;;
22557;SDS011;11445;53.816;8.902;2023-10-19T03:08:35;17.60;;;11.38;;
22557;SDS011;11445;53.816;8.902;2023-10-19T03:11:01;18.77;;;10.90;;
22557;SDS011;11445;53.816;8.902;2023-10-19T03:13:29;18.10;;;11.23;;
22557;SDS011;11445;53.816;8.902;2023-10-19T03:15:57;18.23;;;11.38;;
22557;SDS011;11445;53.816;8.902;2023-10-19T03:18:31;20.15;;;12.00;;
22557;SDS011;11445;53.816;8.902;2023-10-19T03:21:00;19.25;;;11.75;;
22557;SDS011;11445;53.816;8.902;2023-10-19T03:23:26;17.58;;;11.50;;
22557;SDS011;11445;53.816;8.902;2023-10-19T03:25:54;23.80;;;12.32;;
22557;SDS011;11445;53.816;8.902;2023-10-19T03:28:44;17.00;;;11.50;;
22557;SDS011;11445;53.816;8.902;2023-10-19T03:31:11;17.73;;;11.52;;
22557;SDS011;11445;53.816;8.902;2023-10-19T03:33:43;23.75;;;12.07;;
22557;SDS011;11445;53.816;8.902;2023-10-19T03:36:14;21.20;;;11.85;;
22557;SDS011;11445;53.816;8.902;2023-10-19T03:38:41;18.23;;;12.55;;
22557;SDS011;11445;53.816;8.902;2023-10-19T03:41:08;23.17;;;12.95;;
22557;SDS011;11445;53.816;8.902;2023-10-19T03:43:35;23.90;;;13.73;;
22557;SDS011;11445;53.816;8.902;2023-10-19T03:46:05;19.75;;;12.15;;
22557;SDS011;11445;53.816;8.902;2023-10-19T03:48:43;20.95;;;13.02;;
22557;SDS011;11445;53.816;8.902;2023-10-19T03:51:11;22.35;;;13.55;;
22557;SDS011;11445;53.816;8.902;2023-10-19T03:53:40;22.00;;;13.40;;
22557;SDS011;11445;53.816;8.902;2023-10-19T03:56:11;21.42;;;13.75;;
22557;SDS011;11445;53.816;8.902;2023-10-19T03:58:38;23.25;;;14.07;;
22557;SDS011;11445;53.816;8.902;2023-10-19T04:01:08;23.63;;;13.95;;
22557;SDS011;11445;53.816;8.902;2023-10-19T04:03:36;26.02;;;14.27;;
22557;SDS011;11445;53.816;8.902;2023-10-19T04:06:03;25.35;;;13.60;;
22557;SDS011;11445;53.816;8.902;2023-10-19T04:08:31;24.65;;;14.10;;
22557;SDS011;11445;53.816;8.902;2023-10-19T04:11:02;25.13;;;14.43;;
22557;SDS011;11445;53.816;8.902;2023-10-19T04:13:37;26.90;;;14.48;;
22557;SDS011;11445;53.816;8.902;2023-10-19T04:16:04;22.08;;;14.30;;
22557;SDS011;11445;53.816;8.902;2023-10-19T04:18:33;25.02;;;14.35;;
22557;SDS011;11445;53.816;8.902;2023-10-19T04:21:03;20.52;;;14.10;;
22557;SDS011;11445;53.816;8.902;2023-10-19T04:23:31;24.77;;;14.90;;
22557;SDS011;11445;53.816;8.902;2023-10-19T04:26:01;27.42;;;15.25;;
22557;SDS011;11445;53.816;8.902;2023-10-19T04:28:35;23.00;;;14.90;;
22557;SDS011;11445;53.816;8.902;2023-10-19T04:31:09;26.85;;;14.70;;
22557;SDS011;11445;53.816;8.902;2023-10-19T04:33:38;26.48;;;15.00;;
22557;SDS011;11445;53.816;8.902;2023-10-19T04:36:07;24.40;;;14.77;;
22557;SDS011;11445;53.816;8.902;2023-10-19T04:38:37;24.83;;;14.60;;
22557;SDS011;11445;53.816;8.902;2023-10-19T04:41:05;24.15;;;15.00;;
22557;SDS011;11445;53.816;8.902;2023-10-19T04:43:35;25.83;;;15.88;;
22557;SDS011;11445;53.816;8.902;2023-10-19T04:46:09;25.13;;;15.25;;
22557;SDS011;11445;53.816;8.902;2023-10-19T04:48:38;23.75;;;15.23;;
22557;SDS011;11445;53.816;8.902;2023-10-19T04:51:07;25.10;;;15.30;;
22557;SDS011;11445;53.816;8.902;2023-10-19T04:53:35;24.40;;;14.90;;
22557;SDS011;11445;53.816;8.902;2023-10-19T04:56:04;28.75;;;15.77;;
22557;SDS011;11445;53.816;8.902;2023-10-19T04:58:34;22.55;;;15.05;;
22557;SDS011;11445;53.816;8.902;2023-10-19T05:01:01;29.85;;;14.50;;
22557;SDS011;11445;53.816;8.902;2023-10-19T05:03:28;24.98;;;14.85;;
22557;SDS011;11445;53.816;8.902;2023-10-19T05:05:55;30.45;;;15.57;;
22557;SDS011;11445;53.816;8.902;2023-10-19T05:08:22;24.95;;;15.15;;
22557;SDS011;11445;53.816;8.902;2023-10-19T05:10:52;26.30;;;15.43;;
22557;SDS011;11445;53.816;8.902;2023-10-19T05:13:21;28.50;;;15.50;;
22557;SDS011;11445;53.816;8.902;2023-10-19T05:15:50;25.35;;;15.25;;
22557;SDS011;11445;53.816;8.902;2023-10-19T05:18:18;24.77;;;15.35;;
22557;SDS011;11445;53.816;8.902;2023-10-19T05:20:44;25.23;;;15.02;;
22557;SDS011;11445;53.816;8.902;2023-10-19T05:23:11;32.17;;;16.65;;
22557;SDS011;11445;53.816;8.902;2023-10-19T05:25:39;26.13;;;14.68;;
22557;SDS011;11445;53.816;8.902;2023-10-19T05:28:06;29.40;;;15.82;;
22557;SDS011;11445;53.816;8.902;2023-10-19T05:30:35;25.23;;;15.50;;
22557;SDS011;11445;53.816;8.902;2023-10-19T05:33:02;25.20;;;14.70;;
22557;SDS011;11445;53.816;8.902;2023-10-19T05:35:31;24.88;;;15.15;;
22557;SDS011;11445;53.816;8.902;2023-10-19T05:38:00;30.77;;;16.05;;
22557;SDS011;11445;53.816;8.902;2023-10-19T05:40:27;29.10;;;16.23;;
22557;SDS011;11445;53.816;8.902;2023-10-19T05:42:55;29.50;;;16.27;;
22557;SDS011;11445;53.816;8.902;2023-10-19T05:45:23;28.13;;;16.55;;
22557;SDS011;11445;53.816;8.902;2023-10-19T05:47:53;27.70;;;14.73;;
22557;SDS011;11445;53.816;8.902;2023-10-19T05:50:20;25.00;;;15.20;;
22557;SDS011;11445;53.816;8.902;2023-10-19T05:52:46;27.25;;;15.75;;
22557;SDS011;11445;53.816;8.902;2023-10-19T05:55:14;24.05;;;14.43;;
22557;SDS011;11445;53.816;8.902;2023-10-19T05:57:41;24.83;;;15.20;;
22557;SDS011;11445;53.816;8.902;2023-10-19T06:00:08;28.70;;;16.13;;
22557;SDS011;11445;53.816;8.902;2023-10-19T06:02:41;23.35;;;14.95;;
22557;SDS011;11445;53.816;8.902;2023-10-19T06:05:11;30.25;;;16.55;;
22557;SDS011;11445;53.816;8.902;2023-10-19T06:07:40;24.25;;;14.68;;
22557;SDS011;11445;53.816;8.902;2023-10-19T06:10:07;26.45;;;15.18;;
22557;SDS011;11445;53.816;8.902;2023-10-19T06:12:40;27.92;;;15.15;;
22557;SDS011;11445;53.816;8.902;2023-10-19T06:15:08;29.23;;;15.52;;
22557;SDS011;11445;53.816;8.902;2023-10-19T06:17:37;25.38;;;15.05;;
22557;SDS011;11445;53.816;8.902;2023-10-19T06:20:06;26.75;;;15.45;;
22557;SDS011;11445;53.816;8.902;2023-10-19T06:22:35;25.42;;;14.95;;
22557;SDS011;11445;53.816;8.902;2023-10-19T06:25:02;26.17;;;15.07;;
22557;SDS011;11445;53.816;8.902;2023-10-19T06:27:31;25.23;;;15.15;;
22557;SDS011;11445;53.816;8.902;2023-10-19T06:29:57;27.65;;;16.00;;
22557;SDS011;11445;53.816;8.902;2023-10-19T06:32:24;27.98;;;15.73;;
22557;SDS011;11445;53.816;8.902;2023-10-19T06:34:52;27.27;;;14.93;;
22557;SDS011;11445;53.816;8.902;2023-10-19T06:37:19;29.10;;;14.98;;
22557;SDS011;11445;53.816;8.902;2023-10-19T06:39:47;22.98;;;14.68;;
22557;SDS011;11445;53.816;8.902;2023-10-19T06:42:16;28.15;;;14.50;;
22557;SDS011;11445;53.816;8.902;2023-10-19T06:44:43;25.77;;;15.10;;
22557;SDS011;11445;53.816;8.902;2023-10-19T06:47:10;26.48;;;15.63;;
22557;SDS011;11445;53.816;8.902;2023-10-19T06:49:38;24.40;;;14.63;;
22557;SDS011;11445;53.816;8.902;2023-10-19T06:52:05;21.98;;;13.77;;
22557;SDS011;11445;53.816;8.902;2023-10-19T06:54:36;25.70;;;13.93;;
22557;SDS011;11445;53.816;8.902;2023-10-19T06:57:05;23.33;;;13.77;;
22557;SDS011;11445;53.816;8.902;2023-10-19T06:59:33;24.35;;;14.52;;
22557;SDS011;11445;53.816;8.902;2023-10-19T07:02:00;26.30;;;14.38;;
22557;SDS011;11445;53.816;8.902;2023-10-19T07:04:27;25.65;;;15.35;;
22557;SDS011;11445;53.816;8.902;2023-10-19T07:06:54;23.05;;;15.10;;
22557;SDS011;11445;53.816;8.902;2023-10-19T07:09:22;25.52;;;15.73;;
22557;SDS011;11445;53.816;8.902;2023-10-19T07:11:49;28.85;;;15.30;;
22557;SDS011;11445;53.816;8.902;2023-10-19T07:14:19;25.02;;;14.48;;
22557;SDS011;11445;53.816;8.902;2023-10-19T07:16:47;26.65;;;15.57;;
22557;SDS011;11445;53.816;8.902;2023-10-19T07:19:14;26.13;;;14.88;;
22557;SDS011;11445;53.816;8.902;2023-10-19T07:21:41;24.05;;;14.10;;
22557;SDS011;11445;53.816;8.902;2023-10-19T07:24:08;25.75;;;15.43;;
22557;SDS011;11445;53.816;8.902;2023-10-19T07:26:36;26.60;;;16.05;;
22557;SDS011;11445;53.816;8.902;2023-10-19T07:29:08;25.25;;;14.25;;
22557;SDS011;11445;53.816;8.902;2023-10-19T07:31:41;31.80;;;16.00;;
22557;SDS011;11445;53.816;8.902;2023-10-19T07:34:08;24.02;;;15.38;;
22557;SDS011;11445;53.816;8.902;2023-10-19T07:36:38;25.58;;;15.38;;
22557;SDS011;11445;53.816;8.902;2023-10-19T07:39:04;25.42;;;14.57;;
22557;SDS011;11445;53.816;8.902;2023-10-19T07:41:39;26.27;;;14.75;;
22557;SDS011;11445;53.816;8.902;2023-10-19T07:44:06;26.40;;;15.63;;
22557;SDS011;11445;53.816;8.902;2023-10-19T07:46:33;26.73;;;15.15;;
22557;SDS011;11445;53.816;8.902;2023-10-19T07:49:01;28.40;;;15.45;;
22557;SDS011;11445;53.816;8.902;2023-10-19T07:51:28;32.80;;;15.32;;
22557;SDS011;11445;53.816;8.902;2023-10-19T07:53:56;28.92;;;15.95;;
22557;SDS011;11445;53.816;8.902;2023-10-19T07:56:23;25.13;;;15.18;;
22557;SDS011;11445;53.816;8.902;2023-10-19T07:58:50;28.00;;;14.68;;
22557;SDS011;11445;53.816;8.902;2023-10-19T08:01:17;28.80;;;14.93;;
22557;SDS011;11445;53.816;8.902;2023-10-19T08:03:44;24.88;;;15.48;;
22557;SDS011;11445;53.816;8.902;2023-10-19T08:06:12;24.52;;;15.25;;
22557;SDS011;11445;53.816;8.902;2023-10-19T08:08:39;25.75;;;15.13;;
22557;SDS011;11445;53.816;8.902;2023-10-19T08:11:07;26.95;;;15.05;;
22557;SDS011;11445;53.816;8.902;2023-10-19T08:13:34;27.38;;;16.20;;
22557;SDS011;11445;53.816;8.902;2023-10-19T08:16:01;30.08;;;15.40;;
22557;SDS011;11445;53.816;8.902;2023-10-19T08:18:28;28.83;;;15.10;;
22557;SDS011;11445;53.816;8.902;2023-10-19T08:20:56;22.92;;;14.70;;
22557;SDS011;11445;53.816;8.902;2023-10-19T08:23:24;28.98;;;15.70;;
22557;SDS011;11445;53.816;8.902;2023-10-19T08:25:52;27.35;;;16.02;;
22557;SDS011;11445;53.816;8.902;2023-10-19T08:28:19;26.90;;;14.85;;
22557;SDS011;11445;53.816;8.902;2023-10-19T08:30:47;24.50;;;14.32;;
22557;SDS011;11445;53.816;8.902;2023-10-19T08:33:22;28.52;;;14.93;;
22557;SDS011;11445;53.816;8.902;2023-10-19T08:35:51;26.20;;;14.80;;
22557;SDS011;11445;53.816;8.902;2023-10-19T08:38:19;28.02;;;14.70;;
22557;SDS011;11445;53.816;8.902;2023-10-19T08:40:47;28.77;;;15.70;;
22557;SDS011;11445;53.816;8.902;2023-10-19T08:43:14;26.13;;;14.77;;
22557;SDS011;11445;53.816;8.902;2023-10-19T08:45:43;23.05;;;14.30;;
22557;SDS011;11445;53.816;8.902;2023-10-19T08:48:10;26.58;;;15.00;;
22557;SDS011;11445;53.816;8.902;2023-10-19T08:50:38;23.77;;;15.05;;
22557;SDS011;11445;53.816;8.902;2023-10-19T08:53:05;25.98;;;15.25;;
22557;SDS011;11445;53.816;8.902;2023-10-19T08:55:34;26.33;;;14.68;;
22557;SDS011;11445;53.816;8.902;2023-10-19T08:58:03;25.42;;;14.82;;
22557;SDS011;11445;53.816;8.902;2023-10-19T09:00:38;25.13;;;14.57;;
22557;SDS011;11445;53.816;8.902;2023-10-19T09:03:12;23.20;;;14.95;;
22557;SDS011;11445;53.816;8.902;2023-10-19T09:05:39;28.33;;;15.05;;
22557;SDS011;11445;53.816;8.902;2023-10-19T09:08:06;22.15;;;13.90;;
22557;SDS011;11445;53.816;8.902;2023-10-19T09:10:35;24.48;;;15.40;;
22557;SDS011;11445;53.816;8.902;2023-10-19T09:13:04;22.50;;;13.82;;
22557;SDS011;11445;53.816;8.902;2023-10-19T09:15:34;25.58;;;15.07;;
22557;SDS011;11445;53.816;8.902;2023-10-19T09:18:11;23.67;;;14.75;;
22557;SDS011;11445;53.816;8.902;2023-10-19T09:20:39;23.00;;;14.98;;
22557;SDS011;11445;53.816;8.902;2023-10-19T09:23:07;24.75;;;14.82;;
22557;SDS011;11445;53.816;8.902;2023-10-19T09:25:34;26.15;;;14.90;;
22557;SDS011;11445;53.816;8.902;2023-10-19T09:28:01;26.25;;;14.90;;
22557;SDS011;11445;53.816;8.902;2023-10-19T09:30:30;25.95;;;14.98;;
22557;SDS011;11445;53.816;8.902;2023-10-19T09:32:57;25.35;;;14.25;;
22557;SDS011;11445;53.816;8.902;2023-10-19T09:35:26;25.13;;;15.35;;
22557;SDS011;11445;53.816;8.902;2023-10-19T09:37:56;24.52;;;14.73;;
22557;SDS011;11445;53.816;8.902;2023-10-19T09:40:24;26.23;;;15.18;;
22557;SDS011;11445;53.816;8.902;2023-10-19T09:42:54;28.73;;;14.75;;
22557;SDS011;11445;53.816;8.902;2023-10-19T09:45:25;26.20;;;14.65;;
22557;SDS011;11445;53.816;8.902;2023-10-19T09:47:56;29.98;;;16.10;;
22557;SDS011;11445;53.816;8.902;2023-10-19T09:50:27;28.15;;;16.00;;
22557;SDS011;11445;53.816;8.902;2023-10-19T09:52:54;30.80;;;15.90;;
22557;SDS011;11445;53.816;8.902;2023-10-19T09:55:22;34.20;;;15.68;;
22557;SDS011;11445;53.816;8.902;2023-10-19T09:57:55;26.55;;;16.30;;
22557;SDS011;11445;53.816;8.902;2023-10-19T10:00:27;29.63;;;16.38;;
22557;SDS011;11445;53.816;8.902;2023-10-19T10:02:56;27.75;;;15.93;;
22557;SDS011;11445;53.816;8.902;2023-10-19T10:08:32;26.73;;;16.38;;
22557;SDS011;11445;53.816;8.902;2023-10-19T10:10:59;24.08;;;15.98;;
22557;SDS011;11445;53.816;8.902;2023-10-19T10:13:46;28.23;;;16.15;;
22557;SDS011;11445;53.816;8.902;2023-10-19T10:16:18;29.95;;;16.63;;
22557;SDS011;11445;53.816;8.902;2023-10-19T10:18:47;25.85;;;15.95;;
22557;SDS011;11445;53.816;8.902;2023-10-19T10:21:16;23.80;;;14.82;;
22557;SDS011;11445;53.816;8.902;2023-10-19T10:23:46;24.88;;;15.13;;
22557;SDS011;11445;53.816;8.902;2023-10-19T10:26:15;22.77;;;15.57;;
22557;SDS011;11445;53.816;8.902;2023-10-19T10:28:45;25.98;;;15.73;;
22557;SDS011;11445;53.816;8.902;2023-10-19T10:31:14;27.17;;;15.93;;
22557;SDS011;11445;53.816;8.902;2023-10-19T10:33:47;24.23;;;15.10;;
22557;SDS011;11445;53.816;8.902;2023-10-19T10:36:17;27.02;;;16.17;;
22557;SDS011;11445;53.816;8.902;2023-10-19T10:38:44;24.35;;;15.18;;
22557;SDS011;11445;53.816;8.902;2023-10-19T10:41:12;25.02;;;15.60;;
22557;SDS011;11445;53.816;8.902;2023-10-19T10:43:49;25.50;;;15.93;;
22557;SDS011;11445;53.816;8.902;2023-10-19T10:46:18;27.17;;;15.98;;
22557;SDS011;11445;53.816;8.902;2023-10-19T10:48:47;27.85;;;15.43;;
22557;SDS011;11445;53.816;8.902;2023-10-19T10:51:15;27.98;;;15.93;;
22557;SDS011;11445;53.816;8.902;2023-10-19T10:53:42;23.45;;;15.02;;
22557;SDS011;11445;53.816;8.902;2023-10-19T10:56:09;21.80;;;15.13;;
22557;SDS011;11445;53.816;8.902;2023-10-19T10:58:37;25.73;;;15.18;;
22557;SDS011;11445;53.816;8.902;2023-10-19T11:01:05;27.33;;;15.70;;
22557;SDS011;11445;53.816;8.902;2023-10-19T11:03:33;23.55;;;15.45;;
22557;SDS011;11445;53.816;8.902;2023-10-19T11:06:04;24.98;;;15.68;;
22557;SDS011;11445;53.816;8.902;2023-10-19T11:08:33;21.88;;;14.50;;
22557;SDS011;11445;53.816;8.902;2023-10-19T11:11:04;25.00;;;15.45;;
22557;SDS011;11445;53.816;8.902;2023-10-19T11:13:35;24.77;;;15.20;;
22557;SDS011;11445;53.816;8.902;2023-10-19T11:16:03;31.75;;;15.77;;
22557;SDS011;11445;53.816;8.902;2023-10-19T11:18:32;30.65;;;16.45;;
22557;SDS011;11445;53.816;8.902;2023-10-19T11:21:02;28.30;;;15.55;;
22557;SDS011;11445;53.816;8.902;2023-10-19T11:23:35;27.85;;;15.77;;
22557;SDS011;11445;53.816;8.902;2023-10-19T11:26:06;25.13;;;15.25;;
22557;SDS011;11445;53.816;8.902;2023-10-19T11:28:33;25.52;;;15.68;;
22557;SDS011;11445;53.816;8.902;2023-10-19T11:31:13;23.38;;;15.10;;
22557;SDS011;11445;53.816;8.902;2023-10-19T11:33:43;30.88;;;15.48;;
22557;SDS011;11445;53.816;8.902;2023-10-19T11:36:11;22.00;;;14.30;;
22557;SDS011;11445;53.816;8.902;2023-10-19T11:38:41;21.83;;;14.60;;
22557;SDS011;11445;53.816;8.902;2023-10-19T11:41:08;25.40;;;15.52;;
22557;SDS011;11445;53.816;8.902;2023-10-19T11:43:36;23.17;;;14.38;;
22557;SDS011;11445;53.816;8.902;2023-10-19T11:46:03;27.17;;;15.55;;
22557;SDS011;11445;53.816;8.902;2023-10-19T11:48:30;27.42;;;15.68;;
22557;SDS011;11445;53.816;8.902;2023-10-19T11:51:00;25.95;;;15.02;;
22557;SDS011;11445;53.816;8.902;2023-10-19T11:53:29;21.60;;;14.27;;
22557;SDS011;11445;53.816;8.902;2023-10-19T11:56:00;20.67;;;14.45;;
22557;SDS011;11445;53.816;8.902;2023-10-19T11:58:30;21.77;;;14.85;;
22557;SDS011;11445;53.816;8.902;2023-10-19T12:00:59;21.67;;;14.80;;
22557;SDS011;11445;53.816;8.902;2023-10-19T12:03:28;23.63;;;15.05;;
22557;SDS011;11445;53.816;8.902;2023-10-19T12:05:54;23.20;;;15.20;;
22557;SDS011;11445;53.816;8.902;2023-10-19T12:08:23;20.48;;;14.02;;
22557;SDS011;11445;53.816;8.902;2023-10-19T12:10:50;28.27;;;15.60;;
22557;SDS011;11445;53.816;8.902;2023-10-19T12:13:17;24.30;;;15.15;;
22557;SDS011;11445;53.816;8.902;2023-10-19T12:15:44;23.77;;;14.90;;
22557;SDS011;11445;53.816;8.902;2023-10-19T12:18:16;21.65;;;14.40;;
22557;SDS011;11445;53.816;8.902;2023-10-19T12:20:44;22.88;;;14.55;;
22557;SDS011;11445;53.816;8.902;2023-10-19T12:23:12;21.85;;;14.25;;
22557;SDS011;11445;53.816;8.902;2023-10-19T12:25:40;20.45;;;14.48;;
22557;SDS011;11445;53.816;8.902;2023-10-19T12:28:08;20.83;;;14.07;;
22557;SDS011;11445;53.816;8.902;2023-10-19T12:30:39;26.27;;;14.90;;
22557;SDS011;11445;53.816;8.902;2023-10-19T12:33:07;21.55;;;14.38;;
22557;SDS011;11445;53.816;8.902;2023-10-19T12:35:36;21.38;;;14.35;;
22557;SDS011;11445;53.816;8.902;2023-10-19T12:38:13;21.63;;;13.98;;
22557;SDS011;11445;53.816;8.902;2023-10-19T12:40:44;22.95;;;14.95;;
22557;SDS011;11445;53.816;8.902;2023-10-19T12:43:13;29.05;;;15.75;;
22557;SDS011;11445;53.816;8.902;2023-10-19T12:45:40;23.13;;;14.55;;
22557;SDS011;11445;53.816;8.902;2023-10-19T12:48:09;21.08;;;14.18;;
22557;SDS011;11445;53.816;8.902;2023-10-19T12:50:36;25.67;;;14.90;;
22557;SDS011;11445;53.816;8.902;2023-10-19T12:53:04;23.67;;;14.20;;
22557;SDS011;11445;53.816;8.902;2023-10-19T12:55:32;20.02;;;13.68;;
22557;SDS011;11445;53.816;8.902;2023-10-19T12:58:01;18.98;;;13.25;;
22557;SDS011;11445;53.816;8.902;2023-10-19T13:03:06;22.65;;;13.15;;
22557;SDS011;11445;53.816;8.902;2023-10-19T13:05:34;18.38;;;12.77;;
22557;SDS011;11445;53.816;8.902;2023-10-19T13:08:02;19.20;;;12.40;;
22557;SDS011;11445;53.816;8.902;2023-10-19T13:10:31;20.85;;;13.63;;
22557;SDS011;11445;53.816;8.902;2023-10-19T13:13:03;19.75;;;13.55;;
22557;SDS011;11445;53.816;8.902;2023-10-19T13:15:31;19.77;;;13.07;;
22557;SDS011;11445;53.816;8.902;2023-10-19T13:17:59;22.05;;;13.20;;
22557;SDS011;11445;53.816;8.902;2023-10-19T13:20:27;21.55;;;12.73;;
22557;SDS011;11445;53.816;8.902;2023-10-19T13:22:58;17.40;;;12.75;;
22557;SDS011;11445;53.816;8.902;2023-10-19T13:25:25;17.52;;;12.75;;
22557;SDS011;11445;53.816;8.902;2023-10-19T13:28:06;18.58;;;13.00;;
22557;SDS011;11445;53.816;8.902;2023-10-19T13:30:38;22.48;;;13.32;;
22557;SDS011;11445;53.816;8.902;2023-10-19T13:33:05;20.60;;;13.18;;
22557;SDS011;11445;53.816;8.902;2023-10-19T13:35:34;18.42;;;12.45;;
22557;SDS011;11445;53.816;8.902;2023-10-19T13:38:02;25.85;;;14.13;;
22557;SDS011;11445;53.816;8.902;2023-10-19T13:40:29;20.80;;;13.93;;
22557;SDS011;11445;53.816;8.902;2023-10-19T13:42:56;20.80;;;14.38;;
22557;SDS011;11445;53.816;8.902;2023-10-19T13:45:25;22.08;;;14.95;;
22557;SDS011;11445;53.816;8.902;2023-10-19T13:47:52;23.90;;;15.13;;
22557;SDS011;11445;53.816;8.902;2023-10-19T13:50:23;25.42;;;15.48;;
22557;SDS011;11445;53.816;8.902;2023-10-19T13:52:51;25.15;;;15.40;;
22557;SDS011;11445;53.816;8.902;2023-10-19T13:55:19;28.33;;;15.43;;
22557;SDS011;11445;53.816;8.902;2023-10-19T13:57:46;29.88;;;16.58;;
22557;SDS011;11445;53.816;8.902;2023-10-19T14:00:14;34.22;;;16.42;;
22557;SDS011;11445;53.816;8.902;2023-10-19T14:02:50;28.13;;;16.90;;
22557;SDS011;11445;53.816;8.902;2023-10-19T14:05:17;23.08;;;15.98;;
22557;SDS011;11445;53.816;8.902;2023-10-19T14:07:45;29.23;;;16.65;;
22557;SDS011;11445;53.816;8.902;2023-10-19T14:10:12;26.70;;;16.20;;
22557;SDS011;11445;53.816;8.902;2023-10-19T14:12:39;28.75;;;16.92;;
22557;SDS011;11445;53.816;8.902;2023-10-19T14:15:08;34.75;;;17.20;;
22557;SDS011;11445;53.816;8.902;2023-10-19T14:17:40;26.35;;;16.48;;
22557;SDS011;11445;53.816;8.902;2023-10-19T14:20:08;25.38;;;16.15;;
22557;SDS011;11445;53.816;8.902;2023-10-19T14:22:39;30.05;;;17.38;;
22557;SDS011;11445;53.816;8.902;2023-10-19T14:25:07;27.63;;;16.48;;
22557;SDS011;11445;53.816;8.902;2023-10-19T14:27:37;34.53;;;17.20;;
22557;SDS011;11445;53.816;8.902;2023-10-19T14:30:06;26.02;;;17.75;;
22557;SDS011;11445;53.816;8.902;2023-10-19T14:32:35;26.65;;;17.25;;
22557;SDS011;11445;53.816;8.902;2023-10-19T14:35:02;28.23;;;17.48;;
22557;SDS011;11445;53.816;8.902;2023-10-19T14:37:32;28.80;;;17.98;;
22557;SDS011;11445;53.816;8.902;2023-10-19T14:39:59;27.25;;;17.20;;